Dawson Township, Illinois
Current Conditions -  °F | °C
As of 6:56 AM on Saturday 20 Dec 2014 (Local Time) from KBMI Reporting Station
Haze Haze  
Wind Chill: 23°   Ceiling: 6500
Heat Index: 23°   Visibility: 4mi
Dew Point: 23°   Wind: 0mph
Humidity: 100%   Direction: NA
Pressure: 30.27"   Gusts: NA
Location:  40.4429°N, 88.7467°W
Report Text: KBMI 201256Z 00000KT 4SM BR BKN065 M05/M05 A3027 RMK AO2 T10501050 SLP272
Loading
Personal Weather Stations






























Interactive Weather Map New forecast layout! Learn more

10-Day Weather Forecast

Advertisements
Track Severe Weather on mobile